Farmington ASC Data

Date Time Air Temperature Relative Humidity Dewpoint Windchill Heat Index Wind Speed Wind Dir. Rain Solar Radiation Soil Temperature
2m 2m 3m 3m 10cm
US/Mountain F % F F F MPH deg in MJ/m^2 F
max avg avg
2020-09-16 00:05:00 60.4 35.7 33.1 60.4 60.4 3.0 4.9 3.6 196.9 194.9 0.00 0.0000000 65.4
2020-09-16 00:10:00 61.0 33.1 31.8 61.0 61.0 3.1 4.6 2.5 151.1 191.0 0.00 0.0000000 65.4
2020-09-16 00:15:00 61.4 36.1 34.3 61.4 61.4 1.2 3.1 1.9 278.4 258.4 0.00 0.0000000 65.3
2020-09-16 00:20:00 61.0 38.4 35.4 61.0 61.0 3.3 5.6 2.4 21.0 284.1 0.00 0.0000000 65.3
2020-09-16 00:25:00 62.0 33.4 32.9 62.0 62.0 5.6 6.3 4.1 84.1 242.5 0.00 0.0000000 65.2
2020-09-16 00:30:00 62.5 33.3 33.2 62.5 62.5 2.1 3.7 2.4 21.1 45.0 0.00 0.0000000 65.1
2020-09-16 00:35:00 61.6 33.4 32.5 61.6 61.6 1.3 2.2 1.5 106.3 93.8 0.00 0.0000000 65.1
2020-09-16 00:40:00 61.2 35.9 34.0 61.2 61.2 2.6 2.6 1.5 179.9 150.0 0.00 0.0000000 65.0
2020-09-16 00:45:00 58.8 40.0 34.6 58.8 58.8 3.7 5.3 3.0 176.5 169.4 0.00 0.0000000 64.9
2020-09-16 00:50:00 57.5 43.1 35.2 57.5 57.5 1.7 3.5 1.8 192.7 192.2 0.00 0.0000000 64.9
2020-09-16 00:55:00 58.3 39.8 33.9 58.3 58.3 3.7 6.7 3.5 180.6 179.4 0.00 0.0000000 64.8
2020-09-16 01:00:00 59.0 37.1 32.8 59.0 59.0 2.2 3.3 2.2 245.0 329.3 0.00 0.0000000 64.7
2020-09-16 01:05:00 58.4 40.8 34.6 58.4 58.4 1.5 3.0 1.7 334.9 216.8 0.00 0.0000000 64.7
2020-09-16 01:10:00 58.0 40.5 34.2 58.0 58.0 2.8 2.8 1.8 139.7 262.2 0.00 0.0000000 64.6
2020-09-16 01:15:00 59.1 38.1 33.6 59.1 59.1 2.1 3.3 2.1 29.6 42.0 0.00 0.0000000 64.5
2020-09-16 01:20:00 59.5 37.2 33.3 59.5 59.5 1.2 2.2 1.7 3.4 18.9 0.00 0.0000000 64.5
2020-09-16 01:25:00 59.2 38.3 33.8 59.2 59.2 1.3 2.8 1.9 64.7 353.9 0.00 0.0000000 64.4
2020-09-16 01:30:00 58.5 39.2 33.7 58.5 58.5 1.0 2.4 1.5 8.0 10.2 0.00 0.0000000 64.3
2020-09-16 01:35:00 57.8 44.6 36.3 57.8 57.8 2.2 2.6 1.7 152.7 277.2 0.00 0.0000000 64.3
2020-09-16 01:40:00 56.2 45.3 35.2 56.2 56.2 3.5 3.8 2.5 180.6 192.1 0.00 0.0000000 64.2
2020-09-16 01:45:00 54.8 45.2 33.9 54.8 54.8 1.0 3.3 1.4 58.4 95.9 0.00 0.0000000 64.1
2020-09-16 01:50:00 56.0 42.1 33.3 56.0 56.0 1.9 2.2 1.6 4.7 12.0 0.00 0.0000000 64.1
2020-09-16 01:55:00 57.1 46.3 36.7 57.1 57.1 1.3 2.6 2.0 269.3 352.7 0.00 0.0000000 64.0
2020-09-16 02:00:00 54.3 48.4 35.2 54.3 54.3 1.5 1.9 1.5 145.7 218.0 0.00 0.0000000 63.9
2020-09-16 02:05:00 53.4 49.4 35.0 53.4 53.4 1.0 1.5 1.1 181.1 151.4 0.00 0.0000000 63.9
2020-09-16 02:10:00 54.1 47.0 34.3 54.1 54.1 1.2 1.7 1.4 127.9 142.0 0.00 0.0000000 63.8
2020-09-16 02:15:00 54.3 47.4 34.7 54.3 54.3 0.0 1.7 1.1 69.5 95.5 0.00 0.0000000 63.7
2020-09-16 02:20:00 53.3 49.1 34.7 53.3 53.3 0.0 1.3 0.5 208.8 65.3 0.00 0.0000000 63.7
2020-09-16 02:25:00 53.2 49.2 34.6 53.2 53.2 1.2 1.2 0.2 22.9 211.3 0.00 0.0000000 63.6
2020-09-16 02:30:00 53.0 50.5 35.1 53.0 53.0 2.8 3.0 1.8 126.7 91.8 0.00 0.0000000 63.5
2020-09-16 02:35:00 52.8 51.5 35.4 52.8 52.8 1.2 2.8 1.9 128.1 157.2 0.00 0.0000000 63.4
2020-09-16 02:40:00 52.0 51.2 34.6 52.0 52.0 1.5 1.9 1.5 89.2 81.8 0.00 0.0000000 63.4
2020-09-16 02:45:00 51.6 48.0 32.5 51.6 51.6 2.8 3.0 2.2 96.4 90.1 0.00 0.0000000 63.3
2020-09-16 02:50:00 51.3 49.5 33.0 51.3 51.3 3.3 3.3 2.8 104.0 97.9 0.00 0.0000000 63.2
2020-09-16 02:55:00 51.8 47.3 32.3 51.8 51.8 2.4 3.7 2.9 68.7 76.5 0.00 0.0000000 63.2
2020-09-16 03:00:00 51.0 49.3 32.6 51.0 51.0 1.9 2.8 2.3 50.2 61.4 0.00 0.0000000 63.1
2020-09-16 03:05:00 50.3 49.8 32.2 50.3 50.3 1.5 3.3 2.2 60.2 66.1 0.00 0.0000000 63.0
2020-09-16 03:10:00 50.6 49.4 32.3 50.6 50.6 1.9 2.8 1.7 39.2 83.6 0.00 0.0000000 63.0
2020-09-16 03:15:00 50.8 49.4 32.6 50.8 50.8 1.0 2.2 1.5 71.0 46.8 0.00 0.0000000 62.9
2020-09-16 03:20:00 51.4 49.5 33.1 51.4 51.4 1.9 2.6 1.8 152.1 115.4 0.00 0.0000000 62.8
2020-09-16 03:25:00 51.6 49.5 33.3 51.6 51.6 2.2 2.2 1.6 108.0 98.8 0.00 0.0000000 62.8
2020-09-16 03:30:00 52.3 48.0 33.2 52.3 52.3 2.4 2.6 2.0 55.4 73.8 0.00 0.0000000 62.7
2020-09-16 03:35:00 52.7 46.2 32.6 52.7 52.7 1.5 2.4 1.7 60.3 31.8 0.00 0.0000000 62.7
2020-09-16 03:40:00 52.8 50.0 34.7 52.8 52.8 3.5 3.7 2.4 144.0 168.6 0.00 0.0000000 62.6
2020-09-16 03:45:00 52.8 50.4 34.9 52.8 52.8 3.5 5.8 4.7 117.6 143.0 0.00 0.0000000 62.5
2020-09-16 03:50:00 53.0 48.0 33.9 53.0 53.0 2.6 3.8 3.1 62.9 113.9 0.00 0.0000000 62.5
2020-09-16 03:55:00 53.8 45.1 33.0 53.8 53.8 1.9 3.1 2.2 67.3 74.2 0.00 0.0000000 62.4
2020-09-16 04:00:00 54.0 44.5 32.8 54.0 54.0 2.1 2.4 2.0 66.7 64.4 0.00 0.0000000 62.3
2020-09-16 04:05:00 53.3 45.1 32.6 53.3 53.3 1.3 2.4 1.7 71.6 70.6 0.00 0.0000000 62.3
2020-09-16 04:10:00 53.1 44.9 32.3 53.1 53.1 1.5 1.7 1.4 63.5 77.6 0.00 0.0000000 62.3
2020-09-16 04:15:00 53.3 45.4 32.7 53.3 53.3 3.0 3.1 1.9 118.2 80.2 0.00 0.0000000 62.2
2020-09-16 04:20:00 53.2 45.6 32.8 53.2 53.2 2.2 3.7 2.1 43.2 98.2 0.00 0.0000000 62.2
2020-09-16 04:25:00 53.2 43.9 31.8 53.2 53.2 1.9 3.3 2.1 163.0 59.9 0.00 0.0000000 62.1
2020-09-16 04:30:00 53.5 43.4 31.8 53.5 53.5 1.5 2.2 1.7 91.9 65.9 0.00 0.0000000 62.0
2020-09-16 04:35:00 53.5 43.5 31.9 53.5 53.5 1.5 3.3 2.0 0.0 56.9 0.00 0.0000000 62.0
2020-09-16 04:40:00 53.8 42.4 31.5 53.8 53.8 0.0 2.1 1.4 332.2 32.0 0.00 0.0000000 61.9
2020-09-16 04:45:00 54.0 44.5 32.9 54.0 54.0 1.5 1.9 1.2 344.5 14.8 0.00 0.0000000 61.9
2020-09-16 04:50:00 53.8 45.0 33.0 53.8 53.8 1.0 2.1 1.3 320.1 328.8 0.00 0.0000000 61.8
2020-09-16 04:55:00 53.3 47.8 34.0 53.3 53.3 2.1 2.1 1.6 263.2 289.4 0.00 0.0000000 61.8
2020-09-16 05:00:00 52.7 51.6 35.3 52.7 52.7 2.8 3.5 2.3 292.4 294.5 0.00 0.0000000 61.7
2020-09-16 05:05:00 53.3 46.3 33.2 53.3 53.3 3.7 4.4 3.5 315.5 261.5 0.00 0.0000000 61.7
2020-09-16 05:10:00 54.2 45.9 33.8 54.2 54.2 1.7 4.2 2.7 38.0 23.9 0.00 0.0000000 61.6
2020-09-16 05:15:00 53.6 49.2 35.0 53.6 53.6 1.7 3.5 2.2 254.3 297.6 0.00 0.0000000 61.6
2020-09-16 05:20:00 52.5 48.7 33.8 52.5 52.5 1.2 3.0 2.0 261.6 251.7 0.00 0.0000000 61.5
2020-09-16 05:25:00 52.4 48.8 33.7 52.4 52.4 1.7 3.8 2.5 247.1 240.9 0.00 0.0000000 61.5
2020-09-16 05:30:00 51.9 50.8 34.2 51.9 51.9 1.5 2.2 1.5 254.3 247.6 0.00 0.0000000 61.4
2020-09-16 05:35:00 50.9 52.7 34.2 50.9 50.9 1.2 1.7 1.0 119.2 206.9 0.00 0.0000000 61.4
2020-09-16 05:40:00 49.9 55.3 34.5 49.9 49.9 1.7 1.9 1.3 174.5 202.8 0.00 0.0000000 61.4
2020-09-16 05:45:00 49.5 55.6 34.3 49.5 49.5 0.8 1.7 1.0 313.3 186.5 0.00 0.0000000 61.3
2020-09-16 05:50:00 49.9 55.7 34.7 49.9 49.9 1.7 3.1 1.9 159.8 166.5 0.00 0.0000000 61.3
2020-09-16 05:55:00 51.9 52.5 35.0 51.9 51.9 3.1 3.8 2.7 153.5 136.9 0.00 0.0000000 61.2
2020-09-16 06:00:00 53.8 47.1 34.1 53.8 53.8 2.8 5.8 2.9 75.0 112.6 0.00 0.0000000 61.2
2020-09-16 06:05:00 54.2 47.2 34.5 54.2 54.2 1.7 3.0 2.0 157.7 105.1 0.00 0.0000000 61.1
2020-09-16 06:10:00 55.1 45.7 34.5 55.1 55.1 0.8 1.9 1.3 66.6 118.0 0.00 0.0000000 61.1
2020-09-16 06:15:00 54.9 45.4 34.2 54.9 54.9 2.2 3.5 1.7 124.4 108.4 0.00 0.0000000 61.0
2020-09-16 06:20:00 55.5 44.8 34.4 55.5 55.5 2.2 3.5 2.3 68.5 74.8 0.00 0.0000000 61.0
2020-09-16 06:25:00 55.4 45.3 34.6 55.4 55.4 1.5 4.0 2.3 109.6 111.6 0.00 0.0000000 61.0
2020-09-16 06:30:00 55.5 44.5 34.2 55.5 55.5 4.9 7.1 2.8 139.9 110.6 0.00 0.0000000 60.9
2020-09-16 06:35:00 55.1 45.3 34.3 55.1 55.1 2.4 4.7 2.2 149.2 45.2 0.00 0.0000000 60.9
2020-09-16 06:40:00 55.4 44.0 33.8 55.4 55.4 3.3 4.6 3.4 158.9 146.8 0.00 0.0000000 60.8
2020-09-16 06:45:00 55.1 47.4 35.4 55.1 55.1 1.9 4.2 2.3 342.4 127.1 0.00 0.0010000 60.8
2020-09-16 06:50:00 54.6 47.9 35.3 54.6 54.6 2.4 3.5 1.9 337.1 160.5 0.00 0.0010000 60.8
2020-09-16 06:55:00 53.9 47.4 34.3 53.9 53.9 1.3 2.2 1.5 234.7 262.6 0.00 0.0030000 60.8
2020-09-16 07:00:00 54.1 47.7 34.7 54.1 54.1 1.3 3.7 1.7 294.4 129.7 0.00 0.0050000 60.7
2020-09-16 07:05:00 53.3 49.5 34.8 53.3 53.3 1.0 1.9 1.3 171.0 116.1 0.00 0.0090000 60.7
2020-09-16 07:10:00 53.8 46.9 34.0 53.8 53.8 2.4 3.5 2.1 110.6 80.5 0.00 0.0120000 60.7
2020-09-16 07:15:00 54.3 45.7 33.8 54.3 54.3 3.8 3.8 2.8 143.4 138.7 0.00 0.0150000 60.6
2020-09-16 07:20:00 54.8 45.5 34.1 54.8 54.8 2.4 4.4 2.6 74.6 119.3 0.00 0.0180000 60.6
2020-09-16 07:25:00 55.1 46.7 35.0 55.1 55.1 3.0 3.0 2.1 47.6 71.5 0.00 0.0220000 60.6
2020-09-16 07:30:00 54.8 47.4 35.1 54.8 54.8 2.8 2.8 1.9 263.5 349.2 0.00 0.0260000 60.5
2020-09-16 07:35:00 55.5 45.6 34.8 55.5 55.5 2.2 5.6 2.3 64.9 121.2 0.00 0.0310000 60.5
2020-09-16 07:40:00 56.5 43.3 34.4 56.5 56.5 3.8 4.6 2.8 84.2 112.2 0.00 0.0330000 60.5
2020-09-16 07:45:00 56.9 43.2 34.7 56.9 56.9 2.8 6.5 3.5 52.4 97.1 0.00 0.0810000 60.5
2020-09-16 07:50:00 57.7 41.8 34.6 57.7 57.7 2.6 5.3 3.0 116.9 91.1 0.00 0.1160000 60.4
2020-09-16 07:55:00 58.6 39.6 34.1 58.6 58.6 3.5 5.3 2.8 118.1 109.5 0.00 0.1360000 60.4
2020-09-16 08:00:00 59.4 39.2 34.5 59.4 59.4 3.5 5.6 3.1 117.6 111.6 0.00 0.1510000 60.4
2020-09-16 08:05:00 59.9 37.8 34.1 59.9 59.9 3.0 6.3 2.9 12.3 106.1 0.00 0.1670000 60.4
2020-09-16 08:10:00 60.2 38.3 34.7 60.2 60.2 3.7 4.6 2.8 312.8 64.2 0.00 0.1810000 60.4
2020-09-16 08:15:00 60.6 39.3 35.7 60.6 60.6 2.2 4.7 3.0 169.4 76.0 0.00 0.1960000 60.4
2020-09-16 08:20:00 60.9 36.9 34.3 60.9 60.9 3.3 6.2 3.6 329.1 29.2 0.00 0.2120000 60.4
2020-09-16 08:25:00 61.2 37.0 34.7 61.2 61.2 2.6 6.9 3.8 10.6 42.5 0.00 0.2290000 60.4
2020-09-16 08:30:00 61.8 35.7 34.4 61.8 61.8 3.5 5.5 3.3 329.5 47.9 0.00 0.2440000 60.4
2020-09-16 08:35:00 62.3 35.4 34.6 62.3 62.3 4.6 6.0 3.8 140.8 62.2 0.00 0.2590000 60.5
2020-09-16 08:40:00 63.2 36.4 36.1 63.2 63.2 1.9 4.0 2.9 107.0 84.9 0.00 0.2750000 60.4
2020-09-16 08:45:00 64.1 34.0 35.2 64.1 64.1 2.1 6.0 3.6 151.0 110.1 0.00 0.2910000 60.5
2020-09-16 08:50:00 65.2 32.7 35.1 65.2 65.2 3.1 5.6 2.6 125.6 105.5 0.00 0.3050000 60.5
2020-09-16 08:55:00 65.5 33.7 36.1 65.5 65.5 2.4 6.0 3.9 21.7 108.3 0.00 0.3220000 60.5
2020-09-16 09:00:00 66.0 31.5 34.9 66.0 66.0 3.3 5.3 3.1 300.4 58.5 0.00 0.3360000 60.6
2020-09-16 09:05:00 66.5 31.0 34.9 66.5 66.5 3.0 5.8 3.3 35.5 33.1 0.00 0.3540000 60.7
2020-09-16 09:10:00 66.8 31.8 35.8 66.8 66.8 1.9 4.9 3.1 90.8 29.3 0.00 0.3670000 60.7
2020-09-16 09:15:00 67.5 31.3 36.1 67.5 67.5 3.3 6.0 3.2 192.2 106.1 0.00 0.3800000 60.8
2020-09-16 09:20:00 67.5 31.5 36.2 67.5 67.5 2.2 5.8 3.6 54.4 61.1 0.00 0.4010000 60.9
2020-09-16 09:25:00 67.9 30.1 35.3 67.9 67.9 4.6 4.9 3.4 70.3 25.6 0.00 0.4060000 60.9
2020-09-16 09:30:00 67.7 33.0 37.5 67.7 67.7 3.0 6.7 3.6 95.0 53.2 0.00 0.4230000 61.1
2020-09-16 09:35:00 68.6 29.4 35.4 68.6 68.6 3.5 5.8 3.4 53.1 59.4 0.00 0.4400000 61.1
2020-09-16 09:40:00 69.1 28.7 35.3 69.1 69.1 2.4 5.3 3.4 36.3 65.6 0.00 0.4560000 61.2
2020-09-16 09:45:00 69.4 28.8 35.5 69.4 69.4 4.2 5.3 3.9 329.3 45.4 0.00 0.4690000 61.3
2020-09-16 09:50:00 69.2 29.6 36.0 69.2 69.2 4.7 4.9 3.2 44.2 10.1 0.00 0.4840000 61.4
2020-09-16 09:55:00 69.4 29.7 36.4 69.4 69.4 3.1 4.9 2.7 37.6 25.0 0.00 0.4990000 61.5
2020-09-16 10:00:00 70.2 25.8 33.5 70.2 70.2 3.8 4.7 3.3 28.2 48.3 0.00 0.5100000 61.6
2020-09-16 10:05:00 70.5 26.8 34.8 70.5 70.5 6.7 6.7 2.8 73.3 79.9 0.00 0.5240000 61.8
2020-09-16 10:10:00 71.1 27.5 35.9 71.1 71.1 3.1 6.5 4.2 130.9 110.0 0.00 0.5390000 61.9
2020-09-16 10:15:00 72.2 23.7 33.1 72.2 72.2 3.8 5.1 3.4 70.7 72.0 0.00 0.5490000 62.0
2020-09-16 10:20:00 73.0 27.7 37.7 73.0 73.0 3.8 4.4 3.2 123.7 109.5 0.00 0.5610000 62.1
2020-09-16 10:25:00 74.1 21.3 32.0 74.1 74.1 4.2 4.7 2.9 114.9 60.2 0.00 0.5760000 62.2
2020-09-16 10:30:00 74.2 23.4 34.4 74.2 74.2 5.6 7.1 4.0 56.0 53.7 0.00 0.5890000 62.4
2020-09-16 10:35:00 75.0 22.3 33.9 75.0 75.0 2.6 5.5 3.1 47.1 53.2 0.00 0.6020000 62.5
2020-09-16 10:40:00 75.2 21.2 32.9 75.2 75.2 3.1 6.2 3.5 7.3 29.4 0.00 0.6140000 62.7
2020-09-16 10:45:00 74.4 24.0 35.2 74.4 74.4 4.4 6.0 4.3 12.4 18.8 0.00 0.6250000 62.8
2020-09-16 10:50:00 75.9 25.7 38.3 75.9 75.9 2.4 4.6 2.9 97.3 46.6 0.00 0.6350000 63.0
2020-09-16 10:55:00 77.2 21.8 35.2 77.2 77.2 2.8 4.7 2.8 277.2 64.9 0.00 0.6460000 63.2
2020-09-16 11:00:00 76.8 18.1 30.2 76.8 76.8 5.3 5.3 3.2 343.8 23.3 0.00 0.6570000 63.3
2020-09-16 11:05:00 76.0 19.5 31.4 76.0 76.0 4.0 4.9 3.3 11.1 76.2 0.00 0.6670000 63.5
2020-09-16 11:10:00 77.1 18.0 30.3 77.1 77.1 4.7 5.6 2.6 132.4 48.9 0.00 0.6760000 63.7
2020-09-16 11:15:00 76.6 22.1 35.0 76.6 76.6 3.7 6.2 3.9 39.6 90.4 0.00 0.6880000 63.9
2020-09-16 11:20:00 76.4 18.5 30.4 76.4 76.4 2.2 4.9 3.1 89.2 23.6 0.00 0.6920000 64.1
2020-09-16 11:25:00 77.0 20.8 33.8 77.0 77.0 2.8 7.6 3.9 84.2 53.2 0.00 0.6960000 64.2
2020-09-16 11:30:00 76.7 18.6 30.8 76.7 76.7 2.6 6.3 4.1 263.2 13.5 0.00 0.7040000 64.4
2020-09-16 11:35:00 76.7 19.8 32.3 76.7 76.7 4.6 6.9 4.5 0.4 16.5 0.00 0.7130000 64.6
2020-09-16 11:40:00 77.6 20.8 34.3 77.6 77.6 1.7 5.3 3.1 333.5 69.5 0.00 0.7190000 64.8
2020-09-16 11:45:00 76.7 22.6 35.7 76.7 76.7 3.7 7.2 4.3 2.3 13.7 0.00 0.7260000 64.9
2020-09-16 11:50:00 76.6 20.2 32.8 76.6 76.6 4.4 5.5 4.2 5.0 350.5 0.00 0.7310000 65.1
2020-09-16 11:55:00 76.7 18.6 30.8 76.7 76.7 4.6 4.9 3.8 322.4 354.1 0.00 0.7380000 65.3
2020-09-16 12:00:00 77.5 19.5 32.6 77.5 77.5 2.6 4.7 3.7 285.2 354.4 0.00 0.7440000 65.5
2020-09-16 12:05:00 76.9 19.8 32.5 76.9 76.9 1.5 6.2 4.0 173.7 334.8 0.00 0.7500000 65.7
2020-09-16 12:10:00 77.2 19.3 32.2 77.2 77.2 3.1 5.3 3.2 311.1 293.2 0.00 0.7560000 65.8
2020-09-16 12:15:00 78.0 22.0 36.1 78.0 78.0 4.2 5.6 3.7 344.8 8.0 0.00 0.7580000 66.1
2020-09-16 12:20:00 78.9 16.4 29.5 78.9 78.9 5.8 6.2 4.1 54.0 39.5 0.00 0.7670000 66.2
2020-09-16 12:25:00 79.9 16.9 31.0 79.9 79.9 2.6 6.0 3.4 8.1 99.5 0.00 0.7690000 66.4
2020-09-16 12:30:00 80.9 20.9 37.1 80.9 80.9 3.8 7.2 3.2 22.9 108.6 0.00 0.7700000 66.6
2020-09-16 12:35:00 80.1 18.9 33.9 80.1 80.1 5.3 7.1 4.2 344.4 1.8 0.00 0.7760000 66.8
2020-09-16 12:40:00 80.3 17.7 32.5 80.3 80.3 5.6 5.6 3.5 22.1 351.1 0.00 0.7790000 67.0
2020-09-16 12:45:00 81.1 18.8 34.7 81.1 81.1 3.1 5.1 3.5 98.6 52.9 0.00 0.7820000 67.2
2020-09-16 12:50:00 82.2 15.2 30.2 82.2 82.2 2.2 6.5 3.9 189.8 142.2 0.00 0.7830000 67.3
2020-09-16 12:55:00 82.0 15.8 31.1 82.0 82.0 2.2 4.2 3.0 311.9 30.4 0.00 0.7840000 67.5
2020-09-16 13:00:00 81.8 15.3 30.1 81.8 81.8 6.2 6.7 4.3 20.7 61.4 0.00 0.7790000 67.7
2020-09-16 13:05:00 83.1 18.2 35.5 83.1 83.1 2.2 6.7 4.3 194.9 49.1 0.00 0.7730000 67.9
2020-09-16 13:10:00 83.9 13.2 28.1 83.9 83.9 6.0 7.2 4.9 128.2 123.0 0.00 0.7740000 68.0
2020-09-16 13:15:00 83.4 13.2 27.8 83.4 83.4 8.1 11.0 4.7 134.8 136.6 0.00 0.7760000 68.2
2020-09-16 13:20:00 82.7 13.5 27.8 82.7 82.7 3.7 8.0 4.6 126.4 143.9 0.00 0.7720000 68.4
2020-09-16 13:25:00 83.7 14.6 30.5 83.7 83.7 4.9 6.5 4.9 144.4 155.3 0.00 0.7630000 68.5
2020-09-16 13:30:00 84.5 13.2 28.6 84.5 84.5 7.6 9.6 5.8 120.9 122.5 0.00 0.7510000 68.6
2020-09-16 13:35:00 84.0 13.0 27.9 84.0 84.0 5.6 9.0 6.1 175.5 146.2 0.00 0.7510000 68.8
2020-09-16 13:40:00 84.3 13.3 28.6 84.3 84.3 4.6 6.2 3.6 171.5 109.1 0.00 0.7470000 68.9
2020-09-16 13:45:00 84.0 13.3 28.4 84.0 84.0 4.6 6.3 4.1 156.4 154.3 0.00 0.7520000 69.0
2020-09-16 13:50:00 83.4 13.6 28.4 83.4 83.4 3.7 6.3 4.8 192.3 156.4 0.00 0.7410000 69.1
2020-09-16 13:55:00 82.4 23.9 41.9 82.4 82.4 3.0 8.5 3.7 282.3 228.7 0.00 0.7390000 69.3
2020-09-16 14:00:00 81.5 16.2 31.2 81.5 81.5 6.3 8.8 5.8 236.3 235.0 0.00 0.7460000 69.4
2020-09-16 14:05:00 82.8 14.3 29.3 82.8 82.8 5.5 8.0 5.8 230.4 210.9 0.00 0.7390000 69.5
2020-09-16 14:10:00 83.9 24.5 43.8 83.9 83.9 3.0 7.1 4.4 134.3 187.3 0.00 0.7340000 69.6
2020-09-16 14:15:00 82.9 13.7 28.2 82.9 82.9 3.3 6.2 4.3 316.5 210.0 0.00 0.7240000 69.7
2020-09-16 14:20:00 83.5 12.5 26.5 83.5 83.5 7.8 9.9 6.0 188.6 219.8 0.00 0.7090000 69.8
2020-09-16 14:25:00 83.8 12.7 27.1 83.8 83.8 6.3 12.4 8.6 203.4 202.0 0.00 0.6980000 69.9
2020-09-16 14:30:00 83.5 20.3 38.5 83.5 83.5 3.7 7.1 4.3 310.4 219.0 0.00 0.6960000 70.0
2020-09-16 14:35:00 84.0 11.1 24.1 84.0 84.0 6.9 12.1 7.7 164.6 194.5 0.00 0.6960000 70.1
2020-09-16 14:40:00 84.0 15.1 31.6 84.0 84.0 4.4 7.6 3.5 205.9 215.2 0.00 0.7070000 70.1
2020-09-16 14:45:00 84.5 12.8 27.9 84.5 84.5 7.1 7.2 4.3 171.6 203.8 0.00 0.7120000 70.2
2020-09-16 14:50:00 84.8 10.3 22.9 84.8 84.8 3.3 8.1 5.6 164.7 153.3 0.00 0.7050000 70.3
2020-09-16 14:55:00 83.0 17.6 34.6 83.0 83.0 4.6 4.9 3.1 232.2 228.0 0.00 0.6960000 70.3
2020-09-16 15:00:00 83.9 16.4 33.5 83.9 83.9 3.8 6.9 4.3 260.8 149.7 0.00 0.6830000 70.4
2020-09-16 15:05:00 83.4 12.7 26.9 83.4 83.4 6.3 7.2 4.3 146.7 271.6 0.00 0.6620000 70.5
2020-09-16 15:10:00 84.3 14.4 30.6 84.3 84.3 2.1 6.2 3.4 287.5 156.9 0.00 0.6570000 70.6
2020-09-16 15:15:00 85.1 24.7 45.0 85.1 85.1 2.4 6.3 2.8 204.3 190.5 0.00 0.6380000 70.6
2020-09-16 15:20:00 84.6 18.1 36.5 84.6 84.6 5.8 5.8 2.4 224.4 238.5 0.00 0.6410000 70.7
2020-09-16 15:25:00 83.1 35.5 53.0 83.1 83.1 4.4 5.1 3.4 281.7 255.2 0.00 0.6370000 70.7
2020-09-16 15:30:00 82.0 22.3 39.8 82.0 82.0 2.6 6.0 3.0 325.6 317.2 0.00 0.6060000 70.8
2020-09-16 15:35:00 83.1 13.7 28.5 83.1 83.1 3.5 5.3 3.8 42.3 341.7 0.00 0.5910000 70.8
2020-09-16 15:40:00 83.3 18.1 35.5 83.3 83.3 2.8 3.7 2.6 19.5 292.5 0.00 0.5870000 70.9
2020-09-16 15:45:00 83.7 12.1 25.9 83.7 83.7 3.5 6.9 3.7 302.1 354.5 0.00 0.5640000 70.9
2020-09-16 15:50:00 83.6 11.3 24.2 83.6 83.6 3.1 6.7 4.6 74.3 352.4 0.00 0.5490000 71.0
2020-09-16 15:55:00 84.0 17.4 35.1 84.0 84.0 2.6 5.3 2.6 316.9 318.1 0.00 0.5270000 71.0
2020-09-16 16:00:00 83.8 11.5 24.8 83.8 83.8 1.9 6.7 3.6 206.8 346.8 0.00 0.5180000 71.0
2020-09-16 16:05:00 83.9 10.4 22.3 83.9 83.9 4.2 6.2 4.3 344.4 345.0 0.00 0.4960000 71.0
2020-09-16 16:10:00 83.5 13.9 29.1 83.5 83.5 2.6 7.8 4.8 2.2 347.7 0.00 0.4790000 71.0
2020-09-16 16:15:00 85.0 10.6 23.8 85.0 85.0 3.3 5.5 2.9 84.3 89.2 0.00 0.4640000 71.0
2020-09-16 16:20:00 85.6 11.3 25.6 85.6 85.6 1.9 4.9 2.9 181.9 74.7 0.00 0.4470000 71.1
2020-09-16 16:25:00 85.5 11.3 25.7 85.5 85.5 5.3 5.5 3.4 237.1 150.6 0.00 0.4340000 71.1
2020-09-16 16:30:00 84.5 17.7 35.9 84.5 84.5 3.5 4.6 2.7 276.9 253.9 0.00 0.4190000 71.1
2020-09-16 16:35:00 84.1 9.4 20.2 84.1 84.1 3.0 5.6 3.7 258.8 235.7 0.00 0.4010000 71.0
2020-09-16 16:40:00 84.9 14.3 30.9 84.9 84.9 1.9 4.4 2.0 279.4 263.4 0.00 0.3860000 71.0
2020-09-16 16:45:00 85.8 13.4 30.0 85.8 85.8 2.1 2.8 1.6 248.7 318.0 0.00 0.3730000 71.0
2020-09-16 16:50:00 85.2 11.0 24.8 85.2 85.2 3.0 3.1 2.3 239.9 248.5 0.00 0.3570000 71.0
2020-09-16 16:55:00 84.4 10.4 22.7 84.4 84.4 7.4 10.1 6.5 188.7 204.9 0.00 0.3380000 71.0
2020-09-16 17:00:00 83.9 17.2 34.7 83.9 83.9 3.7 8.7 5.7 219.1 211.4 0.00 0.3240000 71.0
2020-09-16 17:05:00 83.9 15.4 32.0 83.9 83.9 4.6 5.3 4.1 258.8 222.0 0.00 0.3120000 71.0
2020-09-16 17:10:00 83.7 12.3 26.2 83.7 83.7 5.1 6.9 4.0 214.1 228.6 0.00 0.2930000 71.0
2020-09-16 17:15:00 83.0 15.9 32.1 83.0 83.0 4.4 5.5 4.0 275.2 242.7 0.00 0.2780000 70.9
2020-09-16 17:20:00 82.3 17.7 34.1 82.3 82.3 3.5 4.9 3.4 292.6 277.1 0.00 0.2650000 70.9
2020-09-16 17:25:00 82.1 14.5 29.0 82.1 82.1 3.3 3.8 2.9 267.0 260.0 0.00 0.2470000 70.8
2020-09-16 17:30:00 81.6 14.2 28.2 81.6 81.6 4.4 5.8 4.5 281.7 266.3 0.00 0.2340000 70.8
2020-09-16 17:35:00 81.8 16.5 32.0 81.8 81.8 3.1 6.0 4.3 276.7 258.7 0.00 0.2230000 70.8
2020-09-16 17:40:00 81.5 14.0 27.7 81.5 81.5 3.7 4.7 3.5 235.5 270.8 0.00 0.2090000 70.7
2020-09-16 17:45:00 81.3 17.0 32.2 81.3 81.3 3.7 4.7 3.7 235.9 234.5 0.00 0.1950000 70.6
2020-09-16 17:50:00 81.0 15.3 29.4 81.0 81.0 3.7 4.0 3.1 244.4 246.2 0.00 0.1820000 70.6
2020-09-16 17:55:00 81.2 16.3 31.1 81.2 81.2 3.5 3.5 2.9 294.6 270.9 0.00 0.1670000 70.6
2020-09-16 18:00:00 80.5 16.4 30.8 80.5 80.5 3.3 3.8 3.0 320.1 298.0 0.00 0.1530000 70.5
2020-09-16 18:05:00 80.3 15.9 29.9 80.3 80.3 2.6 3.3 2.7 277.6 292.9 0.00 0.1390000 70.5
2020-09-16 18:10:00 79.6 20.1 35.2 79.6 79.6 2.1 3.5 2.3 304.4 264.3 0.00 0.1260000 70.4
2020-09-16 18:15:00 79.6 18.9 33.6 79.6 79.6 1.5 3.1 2.5 202.2 222.0 0.00 0.1120000 70.4
2020-09-16 18:20:00 78.0 19.3 32.8 78.0 78.0 1.9 3.1 1.9 344.6 333.0 0.00 0.0990000 70.3
2020-09-16 18:25:00 77.1 20.4 33.4 77.1 77.1 1.7 2.1 1.8 344.7 354.1 0.00 0.0880000 70.2
2020-09-16 18:30:00 76.6 19.7 32.1 76.6 76.6 0.8 1.9 1.5 317.1 330.1 0.00 0.0770000 70.2
2020-09-16 18:35:00 76.2 25.5 38.3 76.2 76.2 1.5 1.9 1.3 7.5 340.3 0.00 0.0650000 70.1
2020-09-16 18:40:00 75.4 21.5 33.4 75.4 75.4 2.1 2.4 1.8 6.9 9.2 0.00 0.0540000 70.0
2020-09-16 18:45:00 74.9 21.5 32.9 74.9 74.9 1.9 2.2 1.9 335.1 336.0 0.00 0.0440000 70.0
2020-09-16 18:50:00 73.9 22.4 33.1 73.9 73.9 2.2 2.6 2.0 337.1 355.4 0.00 0.0350000 69.9
2020-09-16 18:55:00 72.8 25.0 34.9 72.8 72.8 0.8 2.2 1.5 69.2 17.8 0.00 0.0270000 69.8
2020-09-16 19:00:00 72.0 24.4 33.6 72.0 72.0 1.7 1.7 1.4 54.4 49.6 0.00 0.0200000 69.7
2020-09-16 19:05:00 71.1 25.2 33.7 71.1 71.1 1.3 1.7 1.4 59.8 58.3 0.00 0.0140000 69.6
2020-09-16 19:10:00 71.0 23.2 31.6 71.0 71.0 1.5 2.2 1.6 49.1 60.8 0.00 0.0080000 69.5
2020-09-16 19:15:00 70.4 23.8 31.7 70.4 70.4 1.9 1.9 1.7 60.1 60.3 0.00 0.0040000 69.4
2020-09-16 19:20:00 69.1 24.9 31.7 69.1 69.1 1.7 2.2 1.8 64.9 62.8 0.00 0.0020000 69.3
2020-09-16 19:25:00 67.9 25.1 30.9 67.9 67.9 2.1 2.1 1.8 65.0 63.3 0.00 0.0010000 69.2
2020-09-16 19:30:00 67.4 25.3 30.6 67.4 67.4 1.9 2.6 2.2 64.8 63.8 0.00 0.0010000 69.1
2020-09-16 19:35:00 67.0 23.1 28.0 67.0 67.0 2.4 2.8 2.4 66.1 63.5 0.00 0.0000000 69.0
2020-09-16 19:40:00 66.1 25.3 29.5 66.1 66.1 1.7 2.6 2.1 86.9 68.7 0.00 0.0000000 68.9
2020-09-16 19:45:00 64.9 26.5 29.6 64.9 64.9 1.5 2.2 1.7 80.7 79.0 0.00 0.0000000 68.8
2020-09-16 19:50:00 64.1 26.7 29.1 64.1 64.1 1.5 1.9 1.7 82.4 78.1 0.00 0.0000000 68.7
2020-09-16 19:55:00 62.7 26.5 27.7 62.7 62.7 1.7 2.1 1.9 69.1 68.8 0.00 0.0000000 68.6
2020-09-16 20:00:00 62.5 25.9 27.1 62.5 62.5 1.5 1.9 1.7 76.8 75.8 0.00 0.0000000 68.5
2020-09-16 20:05:00 62.3 24.9 25.9 62.3 62.3 2.4 2.4 1.9 82.6 74.7 0.00 0.0000000 68.4
2020-09-16 20:10:00 63.7 24.6 26.8 63.7 63.7 3.0 3.0 2.4 106.7 84.0 0.00 0.0000000 68.2
2020-09-16 20:15:00 62.9 25.6 27.1 62.9 62.9 2.2 3.3 2.6 83.9 89.6 0.00 0.0000000 68.1
2020-09-16 20:20:00 62.6 25.3 26.5 62.6 62.6 2.6 2.6 2.4 88.1 80.9 0.00 0.0000000 68.0
2020-09-16 20:25:00 62.9 24.5 26.0 62.9 62.9 3.1 3.3 2.8 76.8 79.9 0.00 0.0000000 67.9
2020-09-16 20:30:00 62.4 24.1 25.2 62.4 62.4 3.3 3.7 3.2 71.0 77.2 0.00 0.0000000 67.8
2020-09-16 20:35:00 62.6 23.7 25.0 62.6 62.6 3.7 4.0 3.3 67.8 70.9 0.00 0.0000000 67.7
2020-09-16 20:40:00 62.6 23.5 24.8 62.6 62.6 3.5 4.0 3.6 64.9 69.3 0.00 0.0000000 67.6
2020-09-16 20:45:00 62.1 24.0 24.9 62.1 62.1 2.4 3.5 3.1 60.3 67.0 0.00 0.0000000 67.5
2020-09-16 20:50:00 62.3 23.7 24.7 62.3 62.3 3.0 4.0 3.3 53.6 66.2 0.00 0.0000000 67.4
2020-09-16 20:55:00 61.9 24.5 25.2 61.9 61.9 2.6 2.8 2.4 74.1 69.2 0.00 0.0000000 67.3
2020-09-16 21:00:00 61.8 25.0 25.6 61.8 61.8 2.2 3.7 2.6 71.9 71.5 0.00 0.0000000 67.2
2020-09-16 21:05:00 61.4 26.2 26.4 61.4 61.4 2.4 2.6 2.2 87.1 83.6 0.00 0.0000000 67.1
2020-09-16 21:10:00 60.4 28.7 27.7 60.4 60.4 2.4 4.6 2.7 144.1 93.5 0.00 0.0000000 67.0
2020-09-16 21:15:00 60.2 27.2 26.3 60.2 60.2 1.7 4.2 2.4 44.4 76.0 0.00 0.0000000 66.9
2020-09-16 21:20:00 61.2 25.8 25.8 61.2 61.2 2.4 2.4 2.0 52.3 88.5 0.00 0.0000000 66.8
2020-09-16 21:25:00 62.4 24.0 25.1 62.4 62.4 2.2 4.9 2.6 33.2 78.7 0.00 0.0000000 66.7
2020-09-16 21:30:00 63.1 23.1 24.8 63.1 63.1 2.2 2.2 1.6 100.5 70.2 0.00 0.0000000 66.6
2020-09-16 21:35:00 63.4 22.8 24.7 63.4 63.4 1.2 2.4 1.4 114.6 89.0 0.00 0.0000000 66.5
2020-09-16 21:40:00 64.1 22.1 24.6 64.1 64.1 2.1 2.1 1.5 90.3 80.9 0.00 0.0000000 66.5
2020-09-16 21:45:00 64.0 22.3 24.7 64.0 64.0 1.2 2.6 1.9 79.9 97.2 0.00 0.0000000 66.4
2020-09-16 21:50:00 63.5 23.7 25.8 63.5 63.5 2.4 2.4 1.5 39.1 68.0 0.00 0.0000000 66.3
2020-09-16 21:55:00 62.7 23.5 24.9 62.7 62.7 1.2 2.2 1.9 68.9 71.7 0.00 0.0000000 66.2
2020-09-16 22:00:00 62.6 23.6 24.9 62.6 62.6 1.7 2.4 1.7 68.4 78.0 0.00 0.0000000 66.1
2020-09-16 22:05:00 62.6 24.0 25.3 62.6 62.6 1.7 1.7 1.6 88.7 84.4 0.00 0.0000000 66.1
2020-09-16 22:10:00 61.9 24.2 24.9 61.9 61.9 1.5 1.7 1.4 68.7 75.9 0.00 0.0000000 66.0
2020-09-16 22:15:00 61.8 24.5 25.1 61.8 61.8 0.8 1.7 1.3 58.9 65.2 0.00 0.0000000 65.9
2020-09-16 22:20:00 61.3 24.4 24.5 61.3 61.3 1.2 1.7 1.1 49.6 48.7 0.00 0.0000000 65.8
2020-09-16 22:25:00 61.5 24.6 24.9 61.5 61.5 2.4 2.4 1.2 129.7 68.1 0.00 0.0000000 65.8
2020-09-16 22:30:00 62.6 23.4 24.7 62.6 62.6 1.3 3.0 2.1 76.6 88.5 0.00 0.0000000 65.7
2020-09-16 22:35:00 62.3 23.8 24.9 62.3 62.3 1.5 1.7 1.4 76.8 75.7 0.00 0.0000000 65.6
2020-09-16 22:40:00 62.4 23.7 24.8 62.4 62.4 2.1 2.1 1.5 69.7 76.9 0.00 0.0000000 65.5
2020-09-16 22:45:00 62.2 24.4 25.3 62.2 62.2 2.4 3.8 2.2 99.5 85.9 0.00 0.0000000 65.4
2020-09-16 22:50:00 61.9 24.7 25.4 61.9 61.9 2.1 2.6 2.1 73.7 66.2 0.00 0.0000000 65.4
2020-09-16 22:55:00 62.1 24.3 25.1 62.1 62.1 1.9 3.8 2.5 71.0 41.9 0.00 0.0000000 65.3
2020-09-16 23:00:00 62.1 24.0 24.9 62.1 62.1 0.8 3.5 1.9 62.4 40.3 0.00 0.0000000 65.2
2020-09-16 23:05:00 62.2 24.1 25.0 62.2 62.2 1.3 1.7 1.2 106.3 94.4 0.00 0.0000000 65.2
2020-09-16 23:10:00 62.0 25.1 25.8 62.0 62.0 2.2 3.3 2.0 87.4 111.5 0.00 0.0000000 65.1
2020-09-16 23:15:00 62.5 24.5 25.7 62.5 62.5 1.0 3.8 2.2 183.6 35.0 0.00 0.0000000 65.0
2020-09-16 23:20:00 62.3 24.3 25.4 62.3 62.3 0.0 1.9 1.1 1.6 358.8 0.00 0.0000000 65.0
2020-09-16 23:25:00 62.0 24.3 25.0 62.0 62.0 1.7 2.1 1.0 27.6 63.7 0.00 0.0000000 64.9
2020-09-16 23:30:00 61.4 24.7 24.9 61.4 61.4 1.2 2.4 1.6 66.3 58.6 0.00 0.0000000 64.8
2020-09-16 23:35:00 61.4 25.0 25.2 61.4 61.4 1.9 3.1 1.8 106.9 76.1 0.00 0.0000000 64.8
2020-09-16 23:40:00 62.2 23.4 24.3 62.2 62.2 6.5 6.5 2.9 125.3 111.0 0.00 0.0000000 64.7
2020-09-16 23:45:00 64.0 21.6 24.0 64.0 64.0 9.9 9.9 6.3 86.2 111.5 0.00 0.0000000 64.6
2020-09-16 23:50:00 64.5 21.8 24.5 64.5 64.5 11.5 13.7 8.7 125.6 117.9 0.00 0.0000000 64.6
2020-09-16 23:55:00 66.9 19.6 24.1 66.9 66.9 11.0 13.5 10.8 131.2 124.3 0.00 0.0000000 64.5
2020-09-17 00:00:00 67.9 19.8 25.1 67.9 67.9 12.4 14.6 11.8 103.7 126.5 0.00 0.0000000 64.5

Data is courtesy of the NM Climate Center. DO NOT USE IN LEGAL PROCEEDINGS.